Time;durP1;ratioP1;P1;durP2;ratioP2;P2;SDS_P1;SDS_P2;PMS_P1;PMS_P2;Temp;Humidity;BMP_temperature;BMP_pressure;BME280_temperature;BME280_humidity;BME280_pressure;Samples;Min_cycle;Max_cycle;Signal;HPM_P1;HPM_P2
2023/01/19 00:02:23;;;;;;;45.17;22.10;;;;;;;-1.46;100.00;99079.44;4968177;28;20085;-73
2023/01/19 00:04:49;;;;;;;49.67;21.25;;;;;;;-1.47;100.00;99090.88;4966763;28;20047;-71
2023/01/19 00:07:15;;;;;;;48.53;22.30;;;;;;;-1.43;100.00;99106.19;4967069;28;20030;-71
2023/01/19 00:09:40;;;;;;;47.15;21.30;;;;;;;-1.38;100.00;99106.66;4966342;28;20035;-71
2023/01/19 00:12:06;;;;;;;43.45;21.70;;;;;;;-1.37;100.00;99110.94;4967218;28;20039;-71
2023/01/19 00:14:32;;;;;;;47.50;24.27;;;;;;;-1.34;100.00;99118.53;4967392;28;20023;-72
2023/01/19 00:16:57;;;;;;;49.10;22.98;;;;;;;-1.35;100.00;99114.25;4982058;28;20039;-72
2023/01/19 00:19:22;;;;;;;43.30;18.67;;;;;;;-1.31;100.00;99120.91;4965704;28;20078;-73
2023/01/19 00:21:48;;;;;;;53.20;24.88;;;;;;;-1.27;100.00;99119.69;4981998;28;20121;-72
2023/01/19 00:24:13;;;;;;;44.13;22.40;;;;;;;-1.24;100.00;99112.53;4965896;28;20480;-72
2023/01/19 00:26:41;;;;;;;43.95;22.75;;;;;;;-1.31;100.00;99107.81;4965690;28;20034;-71
2023/01/19 00:29:09;;;;;;;50.63;24.38;;;;;;;-1.24;100.00;99123.84;4967097;28;20035;-71
2023/01/19 00:31:34;;;;;;;48.00;22.95;;;;;;;-1.30;100.00;99104.22;4965397;28;20034;-70
2023/01/19 00:34:00;;;;;;;52.97;20.80;;;;;;;-1.24;100.00;99107.28;4965850;28;20034;-71
2023/01/19 00:36:25;;;;;;;46.63;23.67;;;;;;;-1.21;100.00;99114.91;4965521;28;20070;-71
2023/01/19 00:38:51;;;;;;;41.30;21.65;;;;;;;-1.22;100.00;99098.34;4966815;28;20066;-71
2023/01/19 00:41:16;;;;;;;48.50;22.35;;;;;;;-1.20;100.00;99108.69;4966905;28;20070;-71
2023/01/19 00:43:42;;;;;;;52.10;21.55;;;;;;;-1.13;100.00;99128.19;4970647;28;20480;-72
2023/01/19 00:46:07;;;;;;;58.58;24.08;;;;;;;-1.19;100.00;99105.16;4970481;28;20038;-71
2023/01/19 00:48:32;;;;;;;46.70;23.60;;;;;;;-1.19;100.00;99105.16;4985513;28;20045;-72
2023/01/19 00:50:58;;;;;;;47.75;22.98;;;;;;;-1.11;100.00;99118.41;4968997;28;20053;-73
2023/01/19 00:53:24;;;;;;;;;;;;;;;-1.12;100.00;99116.78;4969555;28;20034;-72
2023/01/19 00:55:49;;;;;;;42.90;21.85;;;;;;;-1.07;100.00;99119.81;4968909;28;19925;-71
2023/01/19 00:58:15;;;;;;;47.83;21.65;;;;;;;-1.06;100.00;99105.75;4970224;28;20591;-70
2023/01/19 01:00:40;;;;;;;46.38;21.10;;;;;;;-1.05;100.00;99102.19;4985068;28;20500;-72
2023/01/19 01:03:06;;;;;;;42.88;20.98;;;;;;;-1.04;100.00;99106.47;4969011;28;20484;-71
2023/01/19 01:05:31;;;;;;;36.38;19.77;;;;;;;-1.01;100.00;99094.91;4959454;28;20146;-72
2023/01/19 01:07:57;;;;;;;37.53;18.67;;;;;;;-0.95;100.00;99092.59;4968705;28;20056;-72
2023/01/19 01:10:25;;;;;;;47.75;20.10;;;;;;;-0.93;100.00;99077.59;4968664;28;20035;-71
2023/01/19 01:12:51;;;;;;;42.70;19.33;;;;;;;-0.93;100.00;99072.34;4968484;28;20558;-72
2023/01/19 01:15:17;;;;;;;;;;;;;;;-0.94;100.00;99065.41;4965781;28;20019;-71
2023/01/19 01:17:51;;;;;;;49.13;18.95;;;;;;;-0.97;100.00;99057.00;4966878;28;20020;-73
2023/01/19 01:20:24;;;;;;;43.15;18.80;;;;;;;-0.98;100.00;99040.47;4968921;28;20027;-72
2023/01/19 01:22:51;;;;;;;54.72;19.27;;;;;;;-0.98;100.00;99040.47;4969735;28;20403;-72
2023/01/19 01:25:21;;;;;;;37.58;19.15;;;;;;;-0.95;100.00;99029.72;4984840;28;20078;-72
2023/01/19 01:27:47;;;;;;;36.55;18.70;;;;;;;-0.92;100.00;99044.34;4968358;28;20031;-71
2023/01/19 01:30:13;;;;;;;;;;;;;;;-0.85;100.00;99020.09;4968668;28;20827;-73
2023/01/19 01:32:39;;;;;;;42.90;18.83;;;;;;;-0.87;100.00;99022.03;4970503;28;19917;-71
2023/01/19 01:35:05;;;;;;;39.20;18.17;;;;;;;-0.83;100.00;99006.88;4969852;28;20396;-71
2023/01/19 01:37:30;;;;;;;38.03;18.90;;;;;;;-0.78;100.00;98996.81;4969706;28;20039;-71
2023/01/19 01:39:56;;;;;;;35.95;17.25;;;;;;;-0.79;100.00;98976.84;4960292;28;20030;-71
2023/01/19 01:42:27;;;;;;;34.83;18.70;;;;;;;-0.76;100.00;98975.72;4968005;28;20027;-75
2023/01/19 01:44:58;;;;;;;39.08;16.40;;;;;;;-0.72;100.00;98964.03;4957100;28;20023;-71
2023/01/19 01:47:35;;;;;;;33.85;16.13;;;;;;;-0.61;100.00;98953.41;4968348;28;20082;-72
2023/01/19 01:50:06;;;;;;;35.25;15.40;;;;;;;-0.56;100.00;98946.00;4969460;28;20037;-71
2023/01/19 01:52:36;;;;;;;32.70;15.20;;;;;;;-0.52;100.00;98943.91;4968880;28;20070;-72
2023/01/19 01:55:05;;;;;;;27.52;14.73;;;;;;;-0.48;100.00;98933.00;4967871;28;20118;-71
2023/01/19 01:57:31;;;;;;;34.13;16.60;;;;;;;-0.44;100.00;98918.69;4967771;28;20456;-71
2023/01/19 01:59:57;;;;;;;;;;;;;;;-0.43;100.00;98909.00;4984480;28;20039;-71
2023/01/19 02:05:16;;;;;;;30.10;14.85;;;;;;;-0.40;100.00;98874.63;4966433;28;20125;-72
2023/01/19 02:13:21;;;;;;;28.60;15.15;;;;;;;-0.35;100.00;98845.38;4983730;28;20066;-72
2023/01/19 02:15:52;;;;;;;33.00;14.70;;;;;;;-0.35;100.00;98832.28;4968553;28;20071;-72
2023/01/19 02:18:23;;;;;;;30.42;15.82;;;;;;;-0.37;100.00;98821.94;4968570;28;20563;-73
2023/01/19 02:20:56;;;;;;;29.63;14.40;;;;;;;-0.30;100.00;98816.97;4968394;28;20546;-72
2023/01/19 02:23:46;;;;;;;29.52;15.13;;;;;;;-0.24;100.00;98808.53;4983704;28;20031;-72
2023/01/19 02:26:16;;;;;;;32.33;15.70;;;;;;;-0.30;100.00;98788.94;4951197;28;20964;-71
2023/01/19 02:29:03;;;;;;;36.63;15.52;;;;;;;-0.24;100.00;98771.81;4966878;28;20029;-71
2023/01/19 02:31:30;;;;;;;28.20;14.68;;;;;;;-0.20;100.00;98781.06;4967238;28;20114;-72
2023/01/19 02:33:56;;;;;;;27.05;15.25;;;;;;;-0.21;100.00;98776.78;4968467;28;20636;-72
2023/01/19 02:36:26;;;;;;;29.55;15.50;;;;;;;-0.25;100.00;98764.91;4968267;28;20038;-70
2023/01/19 02:38:55;;;;;;;27.67;14.70;;;;;;;-0.20;100.00;98770.56;4966689;28;20039;-71
2023/01/19 02:41:25;;;;;;;34.35;16.75;;;;;;;-0.24;100.00;98767.38;4963593;28;20041;-70
2023/01/19 02:43:52;;;;;;;32.75;15.57;;;;;;;-0.19;100.00;98774.00;4983086;28;20043;-71
2023/01/19 02:46:18;;;;;;;40.28;16.70;;;;;;;-0.21;100.00;98763.66;4965896;28;20031;-73
2023/01/19 02:48:43;;;;;;;34.85;16.88;;;;;;;-0.18;100.00;98773.88;4966693;28;20513;-72
2023/01/19 02:51:23;;;;;;;34.92;16.17;;;;;;;-0.18;100.00;98768.63;4968068;28;20100;-72
2023/01/19 02:54:03;;;;;;;30.30;16.45;;;;;;;-0.18;100.00;98754.69;4968303;28;20050;-71
2023/01/19 02:56:52;;;;;;;36.88;16.58;;;;;;;-0.13;100.00;98761.16;4979056;28;20188;-71
2023/01/19 02:59:51;;;;;;;35.50;17.02;;;;;;;-0.15;100.00;98755.22;4962916;28;20035;-73
2023/01/19 03:02:29;;;;;;;35.85;15.55;;;;;;;-0.10;100.00;98767.91;4941009;28;20463;-71
2023/01/19 03:05:07;;;;;;;33.53;15.63;;;;;;;-0.06;100.00;98777.16;4965834;28;20034;-71
2023/01/19 03:07:51;;;;;;;30.08;16.08;;;;;;;-0.11;100.00;98764.47;4976483;28;20031;-73
2023/01/19 03:10:27;;;;;;;35.45;17.83;;;;;;;-0.11;100.00;98769.72;4982557;28;20043;-72
2023/01/19 03:13:17;;;;;;;35.03;17.13;;;;;;;-0.13;100.00;98783.94;4966202;28;20038;-73
2023/01/19 03:15:48;;;;;;;39.58;20.13;;;;;;;-0.05;100.00;98803.25;4965817;28;20046;-72
2023/01/19 03:18:19;;;;;;;30.30;16.45;;;;;;;0.01;100.00;98820.22;4968798;28;20476;-72
2023/01/19 03:20:46;;;;;;;31.70;16.25;;;;;;;-0.01;100.00;98820.34;4966116;28;20133;-71
2023/01/19 03:23:14;;;;;;;32.00;17.23;;;;;;;-0.04;100.00;98820.63;4967639;28;20037;-71
2023/01/19 03:25:44;;;;;;;34.33;17.60;;;;;;;-0.02;100.00;98829.19;4966084;28;20073;-71
2023/01/19 03:28:13;;;;;;;29.02;16.52;;;;;;;0.01;100.00;98835.94;4967544;28;20062;-71
2023/01/19 03:30:45;;;;;;;36.63;17.55;;;;;;;0.04;100.00;98840.09;4965919;28;20034;-72
2023/01/19 03:33:21;;;;;;;30.15;16.98;;;;;;;0.12;100.00;98848.09;4967422;28;20100;-72
2023/01/19 03:35:51;;;;;;;31.65;15.93;;;;;;;0.08;100.00;98851.97;4967245;28;20039;-71
2023/01/19 03:38:23;;;;;;;28.38;16.08;;;;;;;0.12;100.00;98851.53;4965914;28;20039;-71
2023/01/19 03:40:54;;;;;;;31.08;17.55;;;;;;;0.13;100.00;98849.72;4965788;28;20041;-72
2023/01/19 03:43:22;;;;;;;34.20;17.17;;;;;;;0.11;100.00;98847.25;4967399;28;20082;-71
2023/01/19 03:45:49;;;;;;;35.42;18.27;;;;;;;0.14;100.00;98859.25;4981876;28;20503;-71
2023/01/19 03:48:15;;;;;;;33.35;17.90;;;;;;;0.14;100.00;98854.00;4965955;28;20592;-71
2023/01/19 03:50:40;;;;;;;;;;;;;;;0.15;100.00;98856.50;4973228;28;20038;-71
2023/01/19 03:53:09;;;;;;;38.15;17.50;;;;;;;0.17;100.00;98862.44;4967289;28;19917;-72
2023/01/19 03:55:37;;;;;;;31.27;16.27;;;;;;;0.18;100.00;98856.19;4965867;28;20035;-71
2023/01/19 03:58:02;;;;;;;31.65;17.20;;;;;;;0.24;100.00;98865.31;4966926;28;20057;-74
2023/01/19 04:00:29;;;;;;;35.20;16.92;;;;;;;0.28;100.00;98850.94;4966971;28;20112;-72
2023/01/19 04:02:54;;;;;;;;;;;;;;;0.24;100.00;98849.56;4982403;28;20031;-71
2023/01/19 04:05:20;;;;;;;31.73;16.23;;;;;;;0.26;100.00;98837.13;4965862;28;20391;-73
2023/01/19 04:07:48;;;;;;;26.45;15.38;;;;;;;0.30;100.00;98832.41;4966948;28;20062;-71
2023/01/19 04:10:15;;;;;;;31.08;16.45;;;;;;;0.34;100.00;98834.59;4965900;28;20038;-72
2023/01/19 04:12:40;;;;;;;32.40;17.80;;;;;;;0.29;100.00;98815.84;4965470;28;20034;-72
2023/01/19 04:15:06;;;;;;;27.77;15.45;;;;;;;0.26;100.00;98816.13;4968178;28;20498;-71
2023/01/19 04:17:32;;;;;;;28.58;15.60;;;;;;;0.28;100.00;98801.06;4985667;28;20027;-71
2023/01/19 04:19:57;;;;;;;28.23;15.85;;;;;;;0.29;100.00;98800.09;4970914;28;20050;-71
2023/01/19 04:22:22;;;;;;;33.20;17.50;;;;;;;0.30;100.00;98803.53;4971051;28;20131;-72
2023/01/19 04:24:48;;;;;;;24.52;14.15;;;;;;;0.30;100.00;98809.59;4969412;28;20534;-71
2023/01/19 04:27:15;;;;;;;30.42;15.55;;;;;;;0.31;100.00;98805.19;4970777;28;20102;-71
2023/01/19 04:29:40;;;;;;;30.48;15.82;;;;;;;0.32;100.00;98805.03;4969356;28;20053;-72
2023/01/19 04:32:06;;;;;;;32.17;16.08;;;;;;;0.28;100.00;98802.84;4969306;28;20519;-71
2023/01/19 04:34:31;;;;;;;27.25;15.45;;;;;;;0.34;100.00;98807.53;4970524;28;20520;-71
2023/01/19 04:36:57;;;;;;;31.42;14.30;;;;;;;0.25;100.00;98793.47;4969132;28;20313;-71
2023/01/19 04:39:22;;;;;;;30.05;16.52;;;;;;;0.30;100.00;98812.22;4970336;28;20035;-71
2023/01/19 04:41:47;;;;;;;39.15;16.80;;;;;;;0.32;100.00;98810.28;4970277;28;20030;-72
2023/01/19 04:44:13;;;;;;;34.13;16.00;;;;;;;0.34;100.00;98823.28;4969348;28;20039;-72
2023/01/19 04:46:38;;;;;;;28.45;15.25;;;;;;;0.30;100.00;98817.47;4985039;28;20282;-71
2023/01/19 04:49:04;;;;;;;34.75;15.68;;;;;;;0.33;100.00;98827.72;4970390;28;20030;-71
2023/01/19 04:51:29;;;;;;;26.67;15.75;;;;;;;0.37;100.00;98828.22;4970381;28;20404;-71
2023/01/19 04:53:56;;;;;;;42.73;17.07;;;;;;;0.38;100.00;98835.16;4969046;28;20027;-71
2023/01/19 04:56:22;;;;;;;28.13;15.07;;;;;;;0.39;100.00;98827.13;4969994;28;20290;-71
2023/01/19 04:58:47;;;;;;;36.10;17.40;;;;;;;0.42;100.00;98833.88;4985207;28;20503;-72
2023/01/19 05:01:13;;;;;;;30.60;16.50;;;;;;;0.44;100.00;98834.56;4970098;28;20117;-71
2023/01/19 05:03:39;;;;;;;28.35;16.02;;;;;;;0.45;100.00;98827.53;4985079;28;20034;-72
2023/01/19 05:06:05;;;;;;;28.92;16.77;;;;;;;0.43;100.00;98826.84;4984735;23;20046;-86
2023/01/19 05:08:30;;;;;;;;;;;;;;;0.50;100.00;98838.41;4996003;28;20502;-86
2023/01/19 05:10:56;;;;;;;30.83;16.23;;;;;;;0.55;100.00;98841.44;4996603;28;19914;-90
2023/01/19 05:13:22;;;;;;;31.85;16.50;;;;;;;0.50;100.00;98854.19;4984084;23;20134;-76
2023/01/19 05:15:47;;;;;;;28.10;16.25;;;;;;;0.49;100.00;98834.97;4952514;28;20498;-77
2023/01/19 05:18:12;;;;;;;32.10;17.20;;;;;;;0.50;100.00;98854.19;4912326;29;20080;-77
2023/01/19 05:20:38;;;;;;;28.00;15.40;;;;;;;0.52;100.00;98860.94;4928129;29;20094;-77
2023/01/19 05:23:04;;;;;;;30.50;17.20;;;;;;;0.56;100.00;98858.84;4946441;28;20294;-77
2023/01/19 05:25:29;;;;;;;32.90;18.52;;;;;;;0.60;100.00;98854.94;4927228;29;20036;-77
2023/01/19 05:27:55;;;;;;;34.50;17.52;;;;;;;0.62;100.00;98866.16;4934339;28;20028;-76
2023/01/19 05:30:20;;;;;;;27.85;16.98;;;;;;;0.59;100.00;98887.47;4943016;29;20403;-77
2023/01/19 05:32:45;;;;;;;34.47;17.85;;;;;;;0.57;100.00;98868.38;4946546;29;20043;-77
2023/01/19 05:35:13;;;;;;;30.80;16.73;;;;;;;0.59;100.00;98890.91;4930651;29;20035;-77
2023/01/19 05:37:38;;;;;;;33.85;16.10;;;;;;;0.59;100.00;98900.59;4931415;29;20299;-77
2023/01/19 05:40:05;;;;;;;43.70;17.80;;;;;;;0.59;100.00;98911.91;4914964;29;20031;-77
2023/01/19 05:42:30;;;;;;;33.05;16.60;;;;;;;0.54;100.00;98903.63;4930406;29;20130;-76
2023/01/19 05:44:56;;;;;;;33.63;17.83;;;;;;;0.59;100.00;98916.34;4946096;28;20204;-77
2023/01/19 05:47:21;;;;;;;33.50;15.93;;;;;;;0.66;100.00;98922.69;4925941;29;20042;-77
2023/01/19 05:49:46;;;;;;;34.35;16.52;;;;;;;0.57;100.00;98905.16;4930661;29;20036;-77
2023/01/19 05:52:12;;;;;;;35.20;18.80;;;;;;;0.57;100.00;98910.41;4930515;29;20572;-77
2023/01/19 05:54:39;;;;;;;36.83;18.13;;;;;;;0.62;100.00;98926.56;4914887;29;20704;-77
2023/01/19 05:57:05;;;;;;;39.15;18.13;;;;;;;0.63;100.00;98929.03;4930304;29;20035;-77
2023/01/19 05:59:30;;;;;;;34.15;16.48;;;;;;;0.63;100.00;98928.19;4931903;29;20038;-77
2023/01/19 06:01:56;;;;;;;36.45;18.63;;;;;;;0.62;100.00;98922.13;4933158;28;20036;-77
2023/01/19 06:04:21;;;;;;;36.70;17.77;;;;;;;0.63;100.00;98913.28;4930779;28;20024;-77
2023/01/19 06:06:50;;;;;;;34.92;18.10;;;;;;;0.67;100.00;98918.25;4914682;29;20039;-77
2023/01/19 06:09:16;;;;;;;32.97;16.83;;;;;;;0.60;100.00;98905.69;4930698;29;20032;-78
2023/01/19 06:11:44;;;;;;;35.33;18.13;;;;;;;0.69;100.00;98932.88;4944276;29;20035;-78
2023/01/19 06:14:10;;;;;;;41.97;19.30;;;;;;;0.70;100.00;98934.53;4932549;29;20103;-78
2023/01/19 06:16:35;;;;;;;35.00;19.63;;;;;;;0.71;100.00;98930.94;4932742;28;20043;-77
2023/01/19 06:19:01;;;;;;;35.30;17.80;;;;;;;0.69;100.00;98938.13;4915115;29;20434;-77
2023/01/19 06:21:26;;;;;;;34.55;17.25;;;;;;;0.62;100.00;98937.06;4929772;29;20488;-78
2023/01/19 06:23:52;;;;;;;36.78;18.58;;;;;;;0.63;100.00;98936.91;4931768;29;20027;-78
2023/01/19 06:26:17;;;;;;;35.77;18.83;;;;;;;0.67;100.00;98945.31;4931051;29;20036;-77
2023/01/19 06:28:42;;;;;;;36.27;18.67;;;;;;;0.70;100.00;98947.66;4930282;29;20389;-78
2023/01/19 06:31:08;;;;;;;44.30;21.13;;;;;;;0.69;100.00;98943.38;4914582;29;20315;-78
2023/01/19 06:33:33;;;;;;;37.63;19.90;;;;;;;0.70;100.00;98945.03;4900924;29;20792;-78
2023/01/19 06:35:58;;;;;;;36.23;18.47;;;;;;;0.70;100.00;98963.41;4908395;28;20653;-78
2023/01/19 06:38:24;;;;;;;42.47;22.87;;;;;;;0.65;100.00;98952.53;4934635;28;20334;-77
2023/01/19 06:40:57;;;;;;;34.03;17.45;;;;;;;0.65;100.00;98964.81;4913814;29;20275;-77
2023/01/19 06:43:23;;;;;;;39.45;19.63;;;;;;;0.69;100.00;98971.47;4914390;29;20826;-78
2023/01/19 06:45:49;;;;;;;40.17;18.77;;;;;;;0.70;100.00;98975.72;4942995;28;20032;-77
2023/01/19 06:48:15;;;;;;;32.47;17.92;;;;;;;0.71;100.00;98993.16;4903648;29;20028;-77
2023/01/19 06:50:43;;;;;;;;;;;;;;;0.69;100.00;98990.66;4936639;28;20040;-77
2023/01/19 06:53:08;;;;;;;38.78;19.33;;;;;;;0.70;100.00;98988.88;4930300;29;19919;-77
2023/01/19 06:55:35;;;;;;;34.83;17.92;;;;;;;0.72;100.00;98998.25;4923022;29;20296;-77
2023/01/19 06:58:00;;;;;;;37.90;19.80;;;;;;;0.71;100.00;99015.00;4931333;29;20038;-77
2023/01/19 07:00:26;;;;;;;42.88;19.05;;;;;;;0.77;100.00;99014.44;4914281;29;20031;-77
2023/01/19 07:02:51;;;;;;;32.70;19.23;;;;;;;0.81;100.00;99018.41;4945424;29;20032;-79
2023/01/19 07:05:17;;;;;;;35.88;20.17;;;;;;;0.77;100.00;99019.69;4930007;29;20403;-78
2023/01/19 07:07:43;;;;;;;40.40;21.38;;;;;;;0.77;100.00;99022.31;4945970;29;20027;-78
2023/01/19 07:10:10;;;;;;;33.90;18.95;;;;;;;0.74;100.00;99022.59;4931534;29;20035;-78
2023/01/19 07:12:37;;;;;;;35.88;18.75;;;;;;;0.84;100.00;99035.69;4945729;28;20071;-77
2023/01/19 07:15:03;;;;;;;35.33;20.23;;;;;;;0.82;100.00;99035.84;4922123;29;20789;-77
2023/01/19 07:17:28;;;;;;;38.75;19.75;;;;;;;0.87;100.00;99042.47;4941069;29;20491;-76
2023/01/19 07:19:54;;;;;;;33.75;19.63;;;;;;;0.86;100.00;99046.06;4929238;29;20024;-77
2023/01/19 07:22:19;;;;;;;37.55;19.30;;;;;;;0.87;100.00;99045.94;4924527;29;20059;-77
2023/01/19 07:24:44;;;;;;;35.65;20.20;;;;;;;0.84;100.00;99056.72;4945036;28;20098;-78
2023/01/19 07:27:15;;;;;;;41.50;21.20;;;;;;;0.82;100.00;99058.69;4915535;29;20040;-77
2023/01/19 07:29:41;;;;;;;39.78;21.23;;;;;;;0.79;100.00;99070.28;4945318;28;20134;-77
2023/01/19 07:32:06;;;;;;;44.67;22.05;;;;;;;0.75;100.00;99073.31;4913704;29;20019;-77
2023/01/19 07:34:31;;;;;;;38.38;21.55;;;;;;;0.77;100.00;99090.63;4937447;29;20039;-78
2023/01/19 07:36:57;;;;;;;47.80;22.60;;;;;;;0.78;100.00;99094.09;4918118;29;20558;-77
2023/01/19 07:39:22;;;;;;;41.53;22.37;;;;;;;0.72;100.00;99105.97;4930603;29;20055;-78
2023/01/19 07:41:48;;;;;;;39.40;21.15;;;;;;;0.73;100.00;99123.41;4925984;28;20047;-78
2023/01/19 07:44:13;;;;;;;41.35;21.85;;;;;;;0.78;100.00;99136.13;4914606;29;20043;-78
2023/01/19 07:46:39;;;;;;;42.05;21.17;;;;;;;0.72;100.00;99141.91;4945343;28;20565;-78
2023/01/19 07:49:04;;;;;;;43.10;24.13;;;;;;;0.70;100.00;99154.34;4930348;29;20035;-77
2023/01/19 07:51:29;;;;;;;45.28;23.58;;;;;;;0.65;100.00;99144.25;4929786;29;20110;-78
2023/01/19 07:53:55;;;;;;;41.45;22.15;;;;;;;0.66;100.00;99153.00;4945755;29;20416;-77
2023/01/19 07:56:21;;;;;;;39.75;21.48;;;;;;;0.67;100.00;99168.59;4943575;28;20079;-77
2023/01/19 07:58:48;;;;;;;45.15;26.55;;;;;;;0.56;100.00;99159.06;4944326;29;20039;-77
2023/01/19 08:01:14;;;;;;;48.20;24.48;;;;;;;0.59;100.00;99184.22;4913356;29;20567;-78
2023/01/19 08:03:39;;;;;;;48.42;24.77;;;;;;;0.55;100.00;99182.81;4918922;29;20134;-78
2023/01/19 08:06:05;;;;;;;49.00;24.02;;;;;;;0.56;100.00;99200.22;4915817;29;20028;-77
2023/01/19 08:08:32;;;;;;;47.25;23.48;;;;;;;0.41;100.00;99194.56;4942002;29;20617;-78
2023/01/19 08:10:57;;;;;;;56.42;26.25;;;;;;;0.38;100.00;99203.53;4928801;29;20941;-78
2023/01/19 08:13:23;;;;;;;46.85;24.30;;;;;;;0.49;100.00;99214.88;4924304;29;20036;-77
2023/01/19 08:15:50;;;;;;;49.28;24.60;;;;;;;0.42;100.00;99230.34;4944451;28;20059;-77
2023/01/19 08:18:16;;;;;;;55.55;27.90;;;;;;;0.33;100.00;99218.88;4928859;29;20035;-76
2023/01/19 08:20:42;;;;;;;;;;;;;;;0.39;100.00;99228.00;4944655;29;20408;-76
2023/01/19 08:23:07;;;;;;;50.38;24.70;;;;;;;0.39;100.00;99239.31;4937921;29;20017;-77
2023/01/19 08:25:45;;;;;;;56.38;26.08;;;;;;;0.45;100.00;99250.28;4939200;28;20039;-78
2023/01/19 08:28:13;;;;;;;50.45;24.63;;;;;;;0.50;100.00;99258.56;4915674;29;20036;-77
2023/01/19 08:30:39;;;;;;;49.90;24.20;;;;;;;0.50;100.00;99262.03;4922846;29;20028;-76
2023/01/19 08:33:08;;;;;;;55.92;26.42;;;;;;;0.55;100.00;99266.88;4912494;29;20037;-77
2023/01/19 08:35:40;;;;;;;47.45;25.45;;;;;;;0.56;100.00;99258.00;4929594;29;20038;-76
2023/01/19 08:38:06;;;;;;;43.88;23.42;;;;;;;0.53;100.00;99271.41;4944320;28;20031;-77
2023/01/19 08:40:35;;;;;;;51.70;27.40;;;;;;;0.52;100.00;99267.97;4933090;29;20485;-76
2023/01/19 08:43:03;;;;;;;51.97;26.60;;;;;;;0.59;100.00;99282.22;4928320;29;20282;-79
2023/01/19 08:45:32;;;;;;;49.42;24.73;;;;;;;0.64;100.00;99292.34;4916736;29;20023;-77
2023/01/19 08:47:58;;;;;;;52.58;25.55;;;;;;;0.66;100.00;99287.78;4928016;28;20488;-77
2023/01/19 08:50:24;;;;;;;;;;;;;;;0.63;100.00;99286.25;4924151;29;20031;-75
2023/01/19 08:52:49;;;;;;;48.58;23.92;;;;;;;0.65;100.00;99291.34;4944261;28;19921;-74
2023/01/19 08:55:14;;;;;;;46.50;23.27;;;;;;;0.71;100.00;99292.63;4928034;29;20130;-77
2023/01/19 08:57:41;;;;;;;48.03;24.30;;;;;;;0.70;100.00;99290.94;4923756;29;20662;-78
2023/01/19 09:00:08;;;;;;;47.35;25.23;;;;;;;0.66;100.00;99290.41;4920694;29;20063;-77
2023/01/19 09:02:33;;;;;;;53.97;26.15;;;;;;;0.67;100.00;99289.44;4928600;29;20071;-77
2023/01/19 09:04:59;;;;;;;50.30;25.38;;;;;;;0.69;100.00;99298.00;4935760;29;20105;-77
2023/01/19 09:07:24;;;;;;;43.53;23.02;;;;;;;0.66;100.00;99286.94;4952381;28;20038;-77
2023/01/19 09:09:49;;;;;;;51.38;24.98;;;;;;;0.72;100.00;99289.84;4949834;29;20020;-78
2023/01/19 09:12:15;;;;;;;44.47;24.87;;;;;;;0.78;100.00;99309.50;4950079;28;20043;-77
2023/01/19 09:14:41;;;;;;;47.35;24.52;;;;;;;0.80;100.00;99300.53;4949684;28;20050;-77
2023/01/19 09:17:06;;;;;;;46.58;24.52;;;;;;;0.71;100.00;99290.81;4915839;29;20107;-78
2023/01/19 09:19:31;;;;;;;47.45;24.02;;;;;;;0.82;100.00;99305.66;4949115;29;20405;-77
2023/01/19 09:21:58;;;;;;;45.33;24.88;;;;;;;0.79;100.00;99301.47;4952081;28;20031;-78
2023/01/19 09:24:24;;;;;;;46.10;25.40;;;;;;;0.82;100.00;99305.66;4920178;29;20149;-78
2023/01/19 09:26:49;;;;;;;47.47;24.67;;;;;;;0.82;100.00;99305.66;4952761;28;20590;-77
2023/01/19 09:29:14;;;;;;;51.33;25.60;;;;;;;0.77;100.00;99303.44;4936317;29;20150;-78
2023/01/19 09:31:40;;;;;;;49.80;25.83;;;;;;;0.75;100.00;99308.00;4944036;29;20304;-77
2023/01/19 09:34:05;;;;;;;45.47;23.85;;;;;;;0.81;100.00;99311.84;4950114;28;20062;-78
2023/01/19 09:36:31;;;;;;;50.17;25.83;;;;;;;0.74;100.00;99314.19;4921698;29;20036;-77
2023/01/19 09:38:56;;;;;;;51.58;24.67;;;;;;;0.76;100.00;99309.63;4920844;29;20471;-77
2023/01/19 09:41:24;;;;;;;45.78;25.10;;;;;;;0.76;100.00;99321.94;4953443;29;20050;-78
2023/01/19 09:43:59;;;;;;;46.47;23.60;;;;;;;0.81;100.00;99333.69;4948814;28;20067;-77
2023/01/19 09:46:40;;;;;;;45.03;24.17;;;;;;;0.82;100.00;99319.63;4931658;29;20059;-78
2023/01/19 09:49:13;;;;;;;48.88;25.23;;;;;;;0.77;100.00;99319.19;4949739;29;20035;-77
2023/01/19 09:51:42;;;;;;;46.55;22.67;;;;;;;0.76;100.00;99335.09;4936887;29;20036;-78
2023/01/19 09:54:37;;;;;;;50.20;24.63;;;;;;;0.75;100.00;99334.25;4936563;29;20031;-78
2023/01/19 09:57:09;;;;;;;47.10;25.05;;;;;;;0.81;100.00;99332.88;4932607;29;20110;-78
2023/01/19 09:59:36;;;;;;;49.63;25.02;;;;;;;0.79;100.00;99327.75;4932336;29;20162;-76
2023/01/19 10:02:19;;;;;;;48.13;25.90;;;;;;;0.82;100.00;99331.94;4930240;29;20101;-76
2023/01/19 10:05:03;;;;;;;51.47;26.90;;;;;;;0.79;100.00;99348.75;4947828;29;20044;-77
2023/01/19 10:07:43;;;;;;;47.55;25.92;;;;;;;0.82;100.00;99330.13;4915710;29;20032;-77
2023/01/19 10:10:19;;;;;;;46.42;22.38;;;;;;;0.88;100.00;99335.81;4929544;29;20162;-78
2023/01/19 10:12:57;;;;;;;47.65;25.15;;;;;;;0.95;100.00;99336.94;4949044;28;20043;-77
2023/01/19 10:15:45;;;;;;;44.05;23.48;;;;;;;1.05;100.00;99351.75;4934338;28;20508;-78
2023/01/19 10:18:15;;;;;;;43.30;22.25;;;;;;;1.05;100.00;99343.88;4954874;28;20032;-77
2023/01/19 10:20:49;;;;;;;44.78;26.45;;;;;;;0.98;100.00;99344.53;4945086;29;20257;-76
2023/01/19 10:23:27;;;;;;;48.22;25.88;;;;;;;0.94;100.00;99340.53;4918917;29;20580;-75
2023/01/19 10:25:53;;;;;;;42.97;24.00;;;;;;;0.99;100.00;99343.56;4930469;29;20401;-76
2023/01/19 10:28:22;;;;;;;;;;;;;;;1.00;100.00;99346.06;4930275;29;20607;-76
2023/01/19 10:30:47;;;;;;;52.03;24.48;;;;;;;0.93;100.00;99330.97;4941997;29;19918;-77
2023/01/19 10:33:14;;;;;;;49.03;24.05;;;;;;;1.00;100.00;99346.06;4914806;29;20020;-75
2023/01/19 10:35:39;;;;;;;49.30;24.67;;;;;;;0.89;100.00;99334.81;4929018;29;20140;-75
2023/01/19 10:38:05;;;;;;;51.10;24.92;;;;;;;0.96;100.00;99344.69;4931428;29;20145;-78
2023/01/19 10:40:43;;;;;;;43.63;22.25;;;;;;;0.95;100.00;99334.28;4927279;29;20456;-75
2023/01/19 10:43:33;;;;;;;48.85;25.17;;;;;;;0.99;100.00;99349.66;4940162;29;20075;-75
2023/01/19 10:45:58;;;;;;;54.45;25.27;;;;;;;0.99;100.00;99349.66;4931829;29;20035;-78
2023/01/19 10:48:24;;;;;;;55.35;26.65;;;;;;;1.01;100.00;99352.97;4946449;29;20058;-76
2023/01/19 10:51:01;;;;;;;45.05;25.90;;;;;;;1.09;100.00;99348.84;4930215;29;20036;-75
2023/01/19 10:53:26;;;;;;;52.15;26.08;;;;;;;1.13;100.00;99351.06;4913746;29;20654;-75
2023/01/19 10:56:12;;;;;;;40.22;21.67;;;;;;;1.21;100.00;99363.53;4945866;28;20031;-77
2023/01/19 10:58:39;;;;;;;60.08;27.85;;;;;;;1.13;100.00;99345.00;4930666;29;20093;-77
2023/01/19 11:01:24;;;;;;;45.00;23.20;;;;;;;1.15;100.00;99348.31;4944890;28;20136;-76
2023/01/19 11:03:52;;;;;;;51.50;22.70;;;;;;;1.16;100.00;99345.53;4946481;29;20066;-76
2023/01/19 11:06:25;;;;;;;42.60;22.23;;;;;;;1.16;100.00;99335.00;4941808;23;20407;-73
2023/01/19 11:08:52;;;;;;;44.22;23.05;;;;;;;1.18;100.00;99327.81;4967433;28;20098;-72
2023/01/19 11:11:20;;;;;;;47.05;24.65;;;;;;;1.15;100.00;99328.09;4962676;28;20827;-70
2023/01/19 11:14:03;;;;;;;44.80;22.63;;;;;;;1.25;100.00;99349.97;4959893;28;20038;-72
2023/01/19 11:16:31;;;;;;;47.95;23.88;;;;;;;1.26;100.00;99350.78;4960109;28;20042;-73
2023/01/19 11:18:57;;;;;;;40.42;20.95;;;;;;;1.31;100.00;99347.75;4963824;28;20030;-72
2023/01/19 11:21:27;;;;;;;46.75;21.45;;;;;;;1.37;100.00;99350.66;4963186;28;20163;-72
2023/01/19 11:23:56;;;;;;;40.75;21.67;;;;;;;1.48;100.00;99349.72;4963539;28;20468;-72
2023/01/19 11:26:33;;;;;;;43.20;21.02;;;;;;;1.42;100.00;99343.19;4978006;28;20023;-72
2023/01/19 11:29:01;;;;;;;37.85;19.88;;;;;;;1.39;100.00;99334.75;4967324;28;20034;-72
2023/01/19 11:31:26;;;;;;;42.47;21.00;;;;;;;1.42;100.00;99337.94;4981820;28;20035;-72
2023/01/19 11:33:54;;;;;;;35.77;19.87;;;;;;;1.41;100.00;99319.69;4974986;28;20035;-72